sensor_id;sensor_type;location;lat;lon;timestamp;pressure;altitude;pressure_sealevel;temperature;humidity
50632;BME280;49583;45.590;-122.498;2023-04-26T00:02:02;101670.74;;;22.24;38.63
50632;BME280;49583;45.590;-122.498;2023-04-26T00:04:18;101671.20;;;22.26;38.80
50632;BME280;49583;45.590;-122.498;2023-04-26T00:06:42;101668.15;;;22.29;38.80
50632;BME280;49583;45.590;-122.498;2023-04-26T00:09:15;101667.00;;;22.31;38.78
50632;BME280;49583;45.590;-122.498;2023-04-26T00:11:39;101663.40;;;22.31;38.81
50632;BME280;49583;45.590;-122.498;2023-04-26T00:14:03;101660.58;;;22.29;38.33
50632;BME280;49583;45.590;-122.498;2023-04-26T00:16:36;101657.89;;;22.26;38.39
50632;BME280;49583;45.590;-122.498;2023-04-26T00:19:09;101657.25;;;22.27;38.23
50632;BME280;49583;45.590;-122.498;2023-04-26T00:21:28;101653.89;;;22.28;38.36
50632;BME280;49583;45.590;-122.498;2023-04-26T00:24:00;101653.98;;;22.27;38.17
50632;BME280;49583;45.590;-122.498;2023-04-26T00:26:14;101650.66;;;22.23;38.13
50632;BME280;49583;45.590;-122.498;2023-04-26T00:28:37;101653.96;;;22.22;37.84
50632;BME280;49583;45.590;-122.498;2023-04-26T00:31:15;101654.05;;;22.21;37.99
50632;BME280;49583;45.590;-122.498;2023-04-26T00:33:31;101650.25;;;22.18;37.88
50632;BME280;49583;45.590;-122.498;2023-04-26T00:35:54;101651.40;;;22.14;37.89
50632;BME280;49583;45.590;-122.498;2023-04-26T00:38:27;101646.10;;;22.11;38.20
50632;BME280;49583;45.590;-122.498;2023-04-26T00:41:01;101654.05;;;22.13;38.60
50632;BME280;49583;45.590;-122.498;2023-04-26T00:43:15;101651.80;;;22.15;38.56
50632;BME280;49583;45.590;-122.498;2023-04-26T00:45:41;101653.85;;;22.15;38.49
50632;BME280;49583;45.590;-122.498;2023-04-26T00:47:57;101651.00;;;22.14;38.55
50632;BME280;49583;45.590;-122.498;2023-04-26T00:50:21;101647.04;;;22.14;38.71
50632;BME280;49583;45.590;-122.498;2023-04-26T00:52:45;101648.80;;;22.12;38.22
50632;BME280;49583;45.590;-122.498;2023-04-26T00:55:18;101641.27;;;22.07;38.23
50632;BME280;49583;45.590;-122.498;2023-04-26T00:57:41;101640.77;;;22.04;38.29
50632;BME280;49583;45.590;-122.498;2023-04-26T00:59:58;101640.06;;;22.01;38.09
50632;BME280;49583;45.590;-122.498;2023-04-26T01:02:31;101641.19;;;22.00;38.49
50632;BME280;49583;45.590;-122.498;2023-04-26T01:04:44;101639.45;;;21.99;38.35
50632;BME280;49583;45.590;-122.498;2023-04-26T01:07:03;101633.98;;;21.95;38.03
50632;BME280;49583;45.590;-122.498;2023-04-26T01:09:25;101635.94;;;21.91;38.02
50632;BME280;49583;45.590;-122.498;2023-04-26T01:11:44;101631.80;;;21.91;38.30
50632;BME280;49583;45.590;-122.498;2023-04-26T01:14:18;101632.60;;;21.90;38.30
50632;BME280;49583;45.590;-122.498;2023-04-26T01:16:51;101626.87;;;21.88;38.24
50632;BME280;49583;45.590;-122.498;2023-04-26T01:19:20;101622.09;;;21.88;38.43
50632;BME280;49583;45.590;-122.498;2023-04-26T01:21:45;101626.73;;;21.85;38.36
50632;BME280;49583;45.590;-122.498;2023-04-26T01:24:08;101622.56;;;21.81;38.26
50632;BME280;49583;45.590;-122.498;2023-04-26T01:26:41;101624.49;;;21.77;38.33
50632;BME280;49583;45.590;-122.498;2023-04-26T01:29:17;101620.74;;;21.71;38.43
50632;BME280;49583;45.590;-122.498;2023-04-26T01:31:30;101624.83;;;21.68;38.32
50632;BME280;49583;45.590;-122.498;2023-04-26T01:34:03;101623.51;;;21.65;38.35
50632;BME280;49583;45.590;-122.498;2023-04-26T01:36:36;101626.80;;;21.61;38.35
50632;BME280;49583;45.590;-122.498;2023-04-26T01:39:09;101623.65;;;21.60;38.40
50632;BME280;49583;45.590;-122.498;2023-04-26T01:41:42;101628.44;;;21.58;38.39
50632;BME280;49583;45.590;-122.498;2023-04-26T01:44:15;101625.19;;;21.55;38.51
50632;BME280;49583;45.590;-122.498;2023-04-26T01:46:48;101627.71;;;21.48;38.37
50632;BME280;49583;45.590;-122.498;2023-04-26T01:49:21;101631.45;;;21.39;38.49
50632;BME280;49583;45.590;-122.498;2023-04-26T01:51:44;101634.20;;;21.33;38.42
50632;BME280;49583;45.590;-122.498;2023-04-26T01:53:56;101638.16;;;21.27;38.52
50632;BME280;49583;45.590;-122.498;2023-04-26T01:56:13;101635.80;;;21.23;38.56
50632;BME280;49583;45.590;-122.498;2023-04-26T01:58:46;101633.28;;;21.19;38.79
50632;BME280;49583;45.590;-122.498;2023-04-26T02:01:08;101627.46;;;21.16;38.83
50632;BME280;49583;45.590;-122.498;2023-04-26T02:03:31;101628.45;;;21.12;38.73
50632;BME280;49583;45.590;-122.498;2023-04-26T02:06:08;101624.89;;;21.07;39.18
50632;BME280;49583;45.590;-122.498;2023-04-26T02:08:33;101621.02;;;21.05;39.11
50632;BME280;49583;45.590;-122.498;2023-04-26T02:10:57;101617.70;;;21.02;39.16
50632;BME280;49583;45.590;-122.498;2023-04-26T02:13:30;101616.59;;;20.99;39.15
50632;BME280;49583;45.590;-122.498;2023-04-26T02:16:04;101617.26;;;20.95;39.27
50632;BME280;49583;45.590;-122.498;2023-04-26T02:18:17;101621.08;;;20.94;39.28
50632;BME280;49583;45.590;-122.498;2023-04-26T02:20:51;101618.24;;;20.90;39.28
50632;BME280;49583;45.590;-122.498;2023-04-26T02:23:17;101616.99;;;20.85;39.20
50632;BME280;49583;45.590;-122.498;2023-04-26T02:25:33;101613.77;;;20.79;39.12
50632;BME280;49583;45.590;-122.498;2023-04-26T02:28:06;101609.62;;;20.69;39.01
50632;BME280;49583;45.590;-122.498;2023-04-26T02:30:40;101612.06;;;20.58;39.22
50632;BME280;49583;45.590;-122.498;2023-04-26T02:32:57;101609.69;;;20.54;39.31
50632;BME280;49583;45.590;-122.498;2023-04-26T02:35:29;101617.27;;;20.46;39.24
50632;BME280;49583;45.590;-122.498;2023-04-26T02:38:02;101618.58;;;20.40;39.32
50632;BME280;49583;45.590;-122.498;2023-04-26T02:40:16;101618.99;;;20.35;39.41
50632;BME280;49583;45.590;-122.498;2023-04-26T02:42:29;101614.78;;;20.28;39.47
50632;BME280;49583;45.590;-122.498;2023-04-26T02:44:48;101615.04;;;20.21;39.42
50632;BME280;49583;45.590;-122.498;2023-04-26T02:47:14;101616.80;;;20.14;39.39
50632;BME280;49583;45.590;-122.498;2023-04-26T02:49:47;101619.20;;;20.08;39.52
50632;BME280;49583;45.590;-122.498;2023-04-26T02:52:21;101618.44;;;20.00;39.55
50632;BME280;49583;45.590;-122.498;2023-04-26T02:54:44;101621.71;;;19.94;39.59
50632;BME280;49583;45.590;-122.498;2023-04-26T02:56:57;101620.38;;;19.89;39.70
50632;BME280;49583;45.590;-122.498;2023-04-26T02:59:30;101621.02;;;19.82;39.70
50632;BME280;49583;45.590;-122.498;2023-04-26T03:02:03;101620.95;;;19.74;39.75
50632;BME280;49583;45.590;-122.498;2023-04-26T03:04:30;101620.31;;;19.68;39.90
50632;BME280;49583;45.590;-122.498;2023-04-26T03:06:47;101619.94;;;19.63;39.97
50632;BME280;49583;45.590;-122.498;2023-04-26T03:09:20;101618.91;;;19.57;40.15
50632;BME280;49583;45.590;-122.498;2023-04-26T03:11:33;101622.41;;;19.51;40.21
50632;BME280;49583;45.590;-122.498;2023-04-26T03:14:07;101623.79;;;19.45;40.32
50632;BME280;49583;45.590;-122.498;2023-04-26T03:16:44;101625.15;;;19.39;40.44
50632;BME280;49583;45.590;-122.498;2023-04-26T03:19:12;101629.50;;;19.32;40.50
50632;BME280;49583;45.590;-122.498;2023-04-26T03:21:45;101631.27;;;19.26;40.58
50632;BME280;49583;45.590;-122.498;2023-04-26T03:24:18;101632.75;;;19.20;40.70
50632;BME280;49583;45.590;-122.498;2023-04-26T03:26:43;101639.02;;;19.16;40.81
50632;BME280;49583;45.590;-122.498;2023-04-26T03:29:06;101638.05;;;19.12;40.95
50632;BME280;49583;45.590;-122.498;2023-04-26T03:31:40;101643.60;;;19.09;41.07
50632;BME280;49583;45.590;-122.498;2023-04-26T03:34:02;101649.15;;;19.03;40.92
50632;BME280;49583;45.590;-122.498;2023-04-26T03:36:28;101651.19;;;18.98;40.86
50632;BME280;49583;45.590;-122.498;2023-04-26T03:39:01;101649.83;;;18.93;41.10
50632;BME280;49583;45.590;-122.498;2023-04-26T03:41:15;101648.23;;;18.90;41.14
50632;BME280;49583;45.590;-122.498;2023-04-26T03:43:28;101650.77;;;18.86;41.09
50632;BME280;49583;45.590;-122.498;2023-04-26T03:45:51;101656.06;;;18.81;41.09
50632;BME280;49583;45.590;-122.498;2023-04-26T03:48:24;101656.13;;;18.73;41.18
50632;BME280;49583;45.590;-122.498;2023-04-26T03:50:57;101656.34;;;18.70;41.33
50632;BME280;49583;45.590;-122.498;2023-04-26T03:53:14;101660.54;;;18.64;41.48
50632;BME280;49583;45.590;-122.498;2023-04-26T03:55:47;101663.71;;;18.54;41.72
50632;BME280;49583;45.590;-122.498;2023-04-26T03:58:19;101666.52;;;18.47;41.83
50632;BME280;49583;45.590;-122.498;2023-04-26T04:00:54;101667.02;;;18.38;41.93
50632;BME280;49583;45.590;-122.498;2023-04-26T04:03:08;101668.88;;;18.29;42.07
50632;BME280;49583;45.590;-122.498;2023-04-26T04:05:32;101672.02;;;18.23;42.04
50632;BME280;49583;45.590;-122.498;2023-04-26T04:07:58;101674.52;;;18.16;42.22
50632;BME280;49583;45.590;-122.498;2023-04-26T04:10:24;101671.38;;;18.08;42.33
50632;BME280;49583;45.590;-122.498;2023-04-26T04:12:57;101673.89;;;18.03;42.34
50632;BME280;49583;45.590;-122.498;2023-04-26T04:15:24;101676.68;;;17.97;42.46
50632;BME280;49583;45.590;-122.498;2023-04-26T04:17:38;101679.20;;;17.92;42.58
50632;BME280;49583;45.590;-122.498;2023-04-26T04:19:55;101677.90;;;17.88;42.58
50632;BME280;49583;45.590;-122.498;2023-04-26T04:22:11;101678.17;;;17.84;42.65
50632;BME280;49583;45.590;-122.498;2023-04-26T04:24:27;101679.10;;;17.79;42.78
50632;BME280;49583;45.590;-122.498;2023-04-26T04:27:02;101685.85;;;17.73;42.86
50632;BME280;49583;45.590;-122.498;2023-04-26T04:29:35;101686.74;;;17.67;42.97
50632;BME280;49583;45.590;-122.498;2023-04-26T04:31:59;101688.35;;;17.61;42.88
50632;BME280;49583;45.590;-122.498;2023-04-26T04:34:22;101689.40;;;17.56;43.03
50632;BME280;49583;45.590;-122.498;2023-04-26T04:36:45;101692.83;;;17.51;43.35
50632;BME280;49583;45.590;-122.498;2023-04-26T04:39:18;101686.91;;;17.45;43.45
50632;BME280;49583;45.590;-122.498;2023-04-26T04:41:51;101683.61;;;17.38;43.49
50632;BME280;49583;45.590;-122.498;2023-04-26T04:44:24;101682.92;;;17.32;43.64
50632;BME280;49583;45.590;-122.498;2023-04-26T04:46:47;101690.37;;;17.25;43.75
50632;BME280;49583;45.590;-122.498;2023-04-26T04:49:06;101689.90;;;17.18;43.76
50632;BME280;49583;45.590;-122.498;2023-04-26T04:51:40;101690.21;;;17.10;43.99
50632;BME280;49583;45.590;-122.498;2023-04-26T04:53:56;101691.58;;;17.05;44.07
50632;BME280;49583;45.590;-122.498;2023-04-26T04:56:13;101694.14;;;17.01;44.14
50632;BME280;49583;45.590;-122.498;2023-04-26T04:58:31;101694.40;;;16.96;44.22
50632;BME280;49583;45.590;-122.498;2023-04-26T05:00:55;101692.15;;;16.92;44.36
50632;BME280;49583;45.590;-122.498;2023-04-26T05:03:25;101689.16;;;16.87;44.55
50632;BME280;49583;45.590;-122.498;2023-04-26T05:05:58;101690.50;;;16.81;44.53
50632;BME280;49583;45.590;-122.498;2023-04-26T05:08:26;101690.88;;;16.78;44.51
50632;BME280;49583;45.590;-122.498;2023-04-26T05:10:59;101690.16;;;16.73;44.46
50632;BME280;49583;45.590;-122.498;2023-04-26T05:13:22;101695.79;;;16.67;44.63
50632;BME280;49583;45.590;-122.498;2023-04-26T05:15:54;101696.80;;;16.61;44.89
50632;BME280;49583;45.590;-122.498;2023-04-26T05:18:10;101698.77;;;16.55;44.96
50632;BME280;49583;45.590;-122.498;2023-04-26T05:20:43;101703.24;;;16.47;45.13
50632;BME280;49583;45.590;-122.498;2023-04-26T05:23:01;101701.98;;;16.42;45.26
50632;BME280;49583;45.590;-122.498;2023-04-26T05:25:23;101702.13;;;16.35;45.35
50632;BME280;49583;45.590;-122.498;2023-04-26T05:27:46;101701.23;;;16.28;45.36
50632;BME280;49583;45.590;-122.498;2023-04-26T05:30:34;101709.03;;;16.21;45.41
50632;BME280;49583;45.590;-122.498;2023-04-26T05:33:07;101705.52;;;16.13;45.58
50632;BME280;49583;45.590;-122.498;2023-04-26T05:35:43;101700.70;;;16.06;45.74
50632;BME280;49583;45.590;-122.498;2023-04-26T05:38:08;101707.02;;;16.02;45.98
50632;BME280;49583;45.590;-122.498;2023-04-26T05:40:40;101703.27;;;15.95;46.09
50632;BME280;49583;45.590;-122.498;2023-04-26T05:43:03;101701.49;;;15.88;46.18
50632;BME280;49583;45.590;-122.498;2023-04-26T05:45:26;101696.63;;;15.78;46.29
50632;BME280;49583;45.590;-122.498;2023-04-26T05:48:00;101696.57;;;15.71;46.39
50632;BME280;49583;45.590;-122.498;2023-04-26T05:50:22;101706.05;;;15.67;46.58
50632;BME280;49583;45.590;-122.498;2023-04-26T05:52:55;101706.13;;;15.62;46.77
50632;BME280;49583;45.590;-122.498;2023-04-26T05:55:11;101706.75;;;15.57;46.85
50632;BME280;49583;45.590;-122.498;2023-04-26T05:57:44;101704.70;;;15.53;46.98
50632;BME280;49583;45.590;-122.498;2023-04-26T05:59:57;101701.36;;;15.49;47.11
50632;BME280;49583;45.590;-122.498;2023-04-26T06:02:21;101697.27;;;15.44;47.26
50632;BME280;49583;45.590;-122.498;2023-04-26T06:04:48;101699.04;;;15.37;47.33
50632;BME280;49583;45.590;-122.498;2023-04-26T06:07:12;101699.98;;;15.29;47.42
50632;BME280;49583;45.590;-122.498;2023-04-26T06:09:35;101701.27;;;15.21;47.61
50632;BME280;49583;45.590;-122.498;2023-04-26T06:11:58;101700.81;;;15.14;47.81
50632;BME280;49583;45.590;-122.498;2023-04-26T06:14:31;101698.82;;;15.09;47.89
50632;BME280;49583;45.590;-122.498;2023-04-26T06:16:59;101702.80;;;15.03;48.08
50632;BME280;49583;45.590;-122.498;2023-04-26T06:19:25;101706.42;;;14.98;48.21
50632;BME280;49583;45.590;-122.498;2023-04-26T06:21:41;101707.80;;;14.92;48.34
50632;BME280;49583;45.590;-122.498;2023-04-26T06:23:57;101707.25;;;14.85;48.42
50632;BME280;49583;45.590;-122.498;2023-04-26T06:26:30;101705.11;;;14.77;48.54
50632;BME280;49583;45.590;-122.498;2023-04-26T06:29:04;101701.44;;;14.71;48.73
50632;BME280;49583;45.590;-122.498;2023-04-26T06:31:27;101703.55;;;14.66;48.96
50632;BME280;49583;45.590;-122.498;2023-04-26T06:33:50;101700.86;;;14.58;49.17
50632;BME280;49583;45.590;-122.498;2023-04-26T06:36:16;101698.81;;;14.51;49.16
50632;BME280;49583;45.590;-122.498;2023-04-26T06:38:29;101695.83;;;14.44;49.30
50632;BME280;49583;45.590;-122.498;2023-04-26T06:40:42;101698.34;;;14.40;49.55
50632;BME280;49583;45.590;-122.498;2023-04-26T06:42:57;101704.84;;;14.36;49.78
50632;BME280;49583;45.590;-122.498;2023-04-26T06:45:33;101710.70;;;14.31;49.79
50632;BME280;49583;45.590;-122.498;2023-04-26T06:48:00;101708.20;;;14.24;50.10
50632;BME280;49583;45.590;-122.498;2023-04-26T06:50:36;101706.94;;;14.18;50.35
50632;BME280;49583;45.590;-122.498;2023-04-26T06:52:49;101707.17;;;14.14;50.45
50632;BME280;49583;45.590;-122.498;2023-04-26T06:55:23;101709.59;;;14.10;50.71
50632;BME280;49583;45.590;-122.498;2023-04-26T06:57:45;101712.80;;;14.06;51.13
50632;BME280;49583;45.590;-122.498;2023-04-26T07:00:19;101714.66;;;14.01;51.31
50632;BME280;49583;45.590;-122.498;2023-04-26T07:02:34;101718.20;;;13.95;51.45
50632;BME280;49583;45.590;-122.498;2023-04-26T07:04:59;101717.97;;;13.88;51.54
50632;BME280;49583;45.590;-122.498;2023-04-26T07:07:32;101718.75;;;13.82;51.82
50632;BME280;49583;45.590;-122.498;2023-04-26T07:09:48;101718.98;;;13.78;52.22
50632;BME280;49583;45.590;-122.498;2023-04-26T07:12:01;101719.11;;;13.74;52.64
50632;BME280;49583;45.590;-122.498;2023-04-26T07:14:14;101717.94;;;13.71;52.78
50632;BME280;49583;45.590;-122.498;2023-04-26T07:16:38;101717.48;;;13.68;53.07
50632;BME280;49583;45.590;-122.498;2023-04-26T07:18:51;101716.21;;;13.62;53.12
50632;BME280;49583;45.590;-122.498;2023-04-26T07:21:11;101714.83;;;13.55;53.15
50632;BME280;49583;45.590;-122.498;2023-04-26T07:23:24;101715.92;;;13.48;53.48
50632;BME280;49583;45.590;-122.498;2023-04-26T07:25:40;101720.20;;;13.43;53.56
50632;BME280;49583;45.590;-122.498;2023-04-26T07:27:52;101719.67;;;13.35;53.63
50632;BME280;49583;45.590;-122.498;2023-04-26T07:30:18;101723.25;;;13.30;54.00
50632;BME280;49583;45.590;-122.498;2023-04-26T07:32:30;101723.79;;;13.25;54.13
50632;BME280;49583;45.590;-122.498;2023-04-26T07:34:43;101715.43;;;13.20;54.39
50632;BME280;49583;45.590;-122.498;2023-04-26T07:37:02;101720.16;;;13.18;54.47
50632;BME280;49583;45.590;-122.498;2023-04-26T07:39:35;101716.36;;;13.14;54.78
50632;BME280;49583;45.590;-122.498;2023-04-26T07:42:07;101718.02;;;13.10;54.89
50632;BME280;49583;45.590;-122.498;2023-04-26T07:44:20;101718.31;;;13.06;55.26
50632;BME280;49583;45.590;-122.498;2023-04-26T07:46:36;101721.39;;;13.04;55.33
50632;BME280;49583;45.590;-122.498;2023-04-26T07:48:52;101720.02;;;13.00;55.44
50632;BME280;49583;45.590;-122.498;2023-04-26T07:51:12;101725.15;;;12.98;55.63
50632;BME280;49583;45.590;-122.498;2023-04-26T07:53:25;101726.34;;;12.93;55.56
50632;BME280;49583;45.590;-122.498;2023-04-26T07:55:58;101726.59;;;12.88;55.87
50632;BME280;49583;45.590;-122.498;2023-04-26T07:58:11;101731.88;;;12.83;56.11
50632;BME280;49583;45.590;-122.498;2023-04-26T08:00:34;101729.14;;;12.78;56.09
50632;BME280;49583;45.590;-122.498;2023-04-26T08:02:58;101732.61;;;12.73;56.28
50632;BME280;49583;45.590;-122.498;2023-04-26T08:05:14;101736.95;;;12.69;56.36
50632;BME280;49583;45.590;-122.498;2023-04-26T08:07:28;101736.45;;;12.65;56.55
50632;BME280;49583;45.590;-122.498;2023-04-26T08:09:50;101742.33;;;12.62;56.67
50632;BME280;49583;45.590;-122.498;2023-04-26T08:12:09;101737.44;;;12.56;56.82
50632;BME280;49583;45.590;-122.498;2023-04-26T08:14:33;101732.53;;;12.52;56.78
50632;BME280;49583;45.590;-122.498;2023-04-26T08:17:06;101725.77;;;12.44;56.83
50632;BME280;49583;45.590;-122.498;2023-04-26T08:19:23;101717.46;;;12.37;57.04
50632;BME280;49583;45.590;-122.498;2023-04-26T08:21:39;101715.79;;;12.31;56.95
50632;BME280;49583;45.590;-122.498;2023-04-26T08:23:55;101711.40;;;12.23;57.06
50632;BME280;49583;45.590;-122.498;2023-04-26T08:26:11;101714.22;;;12.16;57.20
50632;BME280;49583;45.590;-122.498;2023-04-26T08:28:27;101714.58;;;12.12;57.35
50632;BME280;49583;45.590;-122.498;2023-04-26T08:30:44;101713.96;;;12.08;57.64
50632;BME280;49583;45.590;-122.498;2023-04-26T08:32:57;101709.29;;;12.01;57.84
50632;BME280;49583;45.590;-122.498;2023-04-26T08:35:12;101709.30;;;11.99;57.93
50632;BME280;49583;45.590;-122.498;2023-04-26T08:37:46;101705.63;;;11.94;57.99
50632;BME280;49583;45.590;-122.498;2023-04-26T08:40:23;101705.36;;;11.88;58.21
50632;BME280;49583;45.590;-122.498;2023-04-26T08:42:46;101706.55;;;11.84;58.38
50632;BME280;49583;45.590;-122.498;2023-04-26T08:45:02;101707.66;;;11.80;58.56
50632;BME280;49583;45.590;-122.498;2023-04-26T08:47:21;101702.70;;;11.77;58.72
50632;BME280;49583;45.590;-122.498;2023-04-26T08:49:59;101705.91;;;11.77;59.00
50632;BME280;49583;45.590;-122.498;2023-04-26T08:52:15;101706.53;;;11.76;59.06
50632;BME280;49583;45.590;-122.498;2023-04-26T08:54:45;101708.21;;;11.75;59.37
50632;BME280;49583;45.590;-122.498;2023-04-26T08:57:01;101709.23;;;11.75;59.51
50632;BME280;49583;45.590;-122.498;2023-04-26T08:59:26;101702.76;;;11.73;59.57
50632;BME280;49583;45.590;-122.498;2023-04-26T09:01:51;101698.09;;;11.71;59.67
50632;BME280;49583;45.590;-122.498;2023-04-26T09:04:05;101697.02;;;11.70;59.77
50632;BME280;49583;45.590;-122.498;2023-04-26T09:06:22;101698.02;;;11.69;59.68
50632;BME280;49583;45.590;-122.498;2023-04-26T09:08:37;101694.52;;;11.65;59.83
50632;BME280;49583;45.590;-122.498;2023-04-26T09:10:56;101693.27;;;11.60;59.86
50632;BME280;49583;45.590;-122.498;2023-04-26T09:13:12;101695.55;;;11.54;59.66
50632;BME280;49583;45.590;-122.498;2023-04-26T09:15:25;101700.09;;;11.49;59.84
50632;BME280;49583;45.590;-122.498;2023-04-26T09:20:29;101693.15;;;11.41;60.24
50632;BME280;49583;45.590;-122.498;2023-04-26T09:22:42;101698.23;;;11.39;60.35
50632;BME280;49583;45.590;-122.498;2023-04-26T09:25:05;101697.11;;;11.35;60.44
50632;BME280;49583;45.590;-122.498;2023-04-26T09:27:38;101700.31;;;11.33;60.46
50632;BME280;49583;45.590;-122.498;2023-04-26T09:30:11;101703.83;;;11.30;60.57
50632;BME280;49583;45.590;-122.498;2023-04-26T09:32:51;101699.99;;;11.24;60.56
50632;BME280;49583;45.590;-122.498;2023-04-26T09:35:04;101708.11;;;11.18;60.59
50632;BME280;49583;45.590;-122.498;2023-04-26T09:37:18;101707.77;;;11.12;60.72
50632;BME280;49583;45.590;-122.498;2023-04-26T09:39:42;101695.39;;;11.06;60.89
50632;BME280;49583;45.590;-122.498;2023-04-26T09:41:55;101687.27;;;11.00;60.93
50632;BME280;49583;45.590;-122.498;2023-04-26T09:44:28;101683.29;;;10.94;60.87
50632;BME280;49583;45.590;-122.498;2023-04-26T09:47:04;101678.55;;;10.89;61.31
50632;BME280;49583;45.590;-122.498;2023-04-26T09:49:22;101673.00;;;10.82;61.20
50632;BME280;49583;45.590;-122.498;2023-04-26T09:51:35;101665.14;;;10.77;61.14
50632;BME280;49583;45.590;-122.498;2023-04-26T09:53:49;101660.65;;;10.73;61.20
50632;BME280;49583;45.590;-122.498;2023-04-26T09:56:19;101656.20;;;10.68;61.63
50632;BME280;49583;45.590;-122.498;2023-04-26T09:59:01;101658.95;;;10.64;61.62
50632;BME280;49583;45.590;-122.498;2023-04-26T10:01:30;101667.30;;;10.59;61.71
50632;BME280;49583;45.590;-122.498;2023-04-26T10:03:44;101671.02;;;10.56;61.72
50632;BME280;49583;45.590;-122.498;2023-04-26T10:06:21;101672.08;;;10.53;62.10
50632;BME280;49583;45.590;-122.498;2023-04-26T10:08:44;101670.89;;;10.51;62.34
50632;BME280;49583;45.590;-122.498;2023-04-26T10:11:07;101671.93;;;10.49;62.43
50632;BME280;49583;45.590;-122.498;2023-04-26T10:13:20;101672.03;;;10.48;62.51
50632;BME280;49583;45.590;-122.498;2023-04-26T10:15:36;101668.35;;;10.45;62.80
50632;BME280;49583;45.590;-122.498;2023-04-26T10:17:53;101673.42;;;10.45;62.56
50632;BME280;49583;45.590;-122.498;2023-04-26T10:20:13;101676.82;;;10.42;62.60
50632;BME280;49583;45.590;-122.498;2023-04-26T10:22:54;101676.81;;;10.38;62.87
50632;BME280;49583;45.590;-122.498;2023-04-26T10:25:40;101670.17;;;10.38;63.07
50632;BME280;49583;45.590;-122.498;2023-04-26T10:28:13;101660.19;;;10.38;63.29
50632;BME280;49583;45.590;-122.498;2023-04-26T10:30:29;101653.70;;;10.39;63.55
50632;BME280;49583;45.590;-122.498;2023-04-26T10:33:16;101659.24;;;10.38;63.66
50632;BME280;49583;45.590;-122.498;2023-04-26T10:36:02;101661.29;;;10.34;63.55
50632;BME280;49583;45.590;-122.498;2023-04-26T10:38:15;101669.70;;;10.35;63.89
50632;BME280;49583;45.590;-122.498;2023-04-26T10:40:34;101674.13;;;10.32;63.88
50632;BME280;49583;45.590;-122.498;2023-04-26T10:43:32;101686.55;;;10.34;63.99
50632;BME280;49583;45.590;-122.498;2023-04-26T10:45:49;101694.46;;;10.35;64.01
50632;BME280;49583;45.590;-122.498;2023-04-26T10:48:27;101697.04;;;10.36;64.15
50632;BME280;49583;45.590;-122.498;2023-04-26T10:51:11;101697.42;;;10.36;64.17
50632;BME280;49583;45.590;-122.498;2023-04-26T10:54:03;101690.95;;;10.34;64.10
50632;BME280;49583;45.590;-122.498;2023-04-26T10:56:51;101690.64;;;10.33;64.12
50632;BME280;49583;45.590;-122.498;2023-04-26T10:59:13;101692.02;;;10.30;64.20
50632;BME280;49583;45.590;-122.498;2023-04-26T11:01:46;101693.96;;;10.27;64.09
50632;BME280;49583;45.590;-122.498;2023-04-26T11:04:09;101700.06;;;10.24;64.15
50632;BME280;49583;45.590;-122.498;2023-04-26T11:06:48;101690.50;;;10.19;64.07
50632;BME280;49583;45.590;-122.498;2023-04-26T11:09:38;101674.48;;;10.17;64.15
50632;BME280;49583;45.590;-122.498;2023-04-26T11:12:02;101671.00;;;10.16;64.35
50632;BME280;49583;45.590;-122.498;2023-04-26T11:14:15;101674.10;;;10.12;64.40
50632;BME280;49583;45.590;-122.498;2023-04-26T11:16:30;101681.45;;;10.09;64.39
50632;BME280;49583;45.590;-122.498;2023-04-26T11:18:44;101681.48;;;10.03;64.36
50632;BME280;49583;45.590;-122.498;2023-04-26T11:21:16;101678.21;;;9.97;64.27
50632;BME280;49583;45.590;-122.498;2023-04-26T11:23:41;101678.80;;;9.93;64.26
50632;BME280;49583;45.590;-122.498;2023-04-26T11:25:54;101679.27;;;9.87;64.49
50632;BME280;49583;45.590;-122.498;2023-04-26T11:28:08;101683.70;;;9.85;64.65
50632;BME280;49583;45.590;-122.498;2023-04-26T11:30:33;101680.95;;;9.80;64.53
50632;BME280;49583;45.590;-122.498;2023-04-26T11:33:06;101679.62;;;9.77;64.90
50632;BME280;49583;45.590;-122.498;2023-04-26T11:35:47;101676.41;;;9.74;65.19
50632;BME280;49583;45.590;-122.498;2023-04-26T11:38:06;101673.99;;;9.71;64.92
50632;BME280;49583;45.590;-122.498;2023-04-26T11:40:39;101677.36;;;9.67;64.97
50632;BME280;49583;45.590;-122.498;2023-04-26T11:42:52;101673.58;;;9.64;64.94
50632;BME280;49583;45.590;-122.498;2023-04-26T11:45:19;101671.92;;;9.60;65.20
50632;BME280;49583;45.590;-122.498;2023-04-26T11:47:35;101675.73;;;9.58;65.26
50632;BME280;49583;45.590;-122.498;2023-04-26T11:49:48;101671.39;;;9.55;65.36
50632;BME280;49583;45.590;-122.498;2023-04-26T11:52:02;101674.27;;;9.54;65.53
50632;BME280;49583;45.590;-122.498;2023-04-26T11:54:30;101669.17;;;9.53;65.41
50632;BME280;49583;45.590;-122.498;2023-04-26T11:56:43;101662.46;;;9.53;65.84
50632;BME280;49583;45.590;-122.498;2023-04-26T11:59:25;101662.84;;;9.52;65.52
50632;BME280;49583;45.590;-122.498;2023-04-26T12:01:51;101657.76;;;9.50;65.67
50632;BME280;49583;45.590;-122.498;2023-04-26T12:04:15;101661.84;;;9.47;65.77
50632;BME280;49583;45.590;-122.498;2023-04-26T12:06:43;101660.67;;;9.43;65.72
50632;BME280;49583;45.590;-122.498;2023-04-26T12:09:00;101662.41;;;9.40;65.59
50632;BME280;49583;45.590;-122.498;2023-04-26T12:11:24;101664.48;;;9.37;65.95